Time;durP1;ratioP1;P1;durP2;ratioP2;P2;SDS_P1;SDS_P2;PMS_P1;PMS_P2;Temp;Humidity;BMP_temperature;BMP_pressure;BME280_temperature;BME280_humidity;BME280_pressure;Samples;Min_cycle;Max_cycle;Signal;HPM_P1;HPM_P2
2021/12/02 00:00:58;;;;;;;4.00;1.67;;;8.70;93.40;;;;;;20916983;28;20208;-72
2021/12/02 00:11:00;;;;;;;2.33;1.50;;;8.70;93.80;;;;;;20916124;28;20605;-72
2021/12/02 00:21:09;;;;;;;3.60;1.53;;;8.60;93.70;;;;;;20914818;28;20205;-72
2021/12/02 00:31:15;;;;;;;3.87;1.80;;;8.60;93.60;;;;;;20914668;28;20710;-71
2021/12/02 00:41:20;;;;;;;2.50;1.57;;;8.50;93.60;;;;;;20914272;28;20201;-72
2021/12/02 00:51:21;;;;;;;5.23;1.70;;;8.50;93.50;;;;;;20913251;28;20285;-72
2021/12/02 01:01:27;;;;;;;1.97;1.50;;;8.50;93.40;;;;;;20912875;28;20277;-71
2021/12/02 01:11:29;;;;;;;4.13;1.70;;;8.50;93.60;;;;;;20911376;28;20698;-71
2021/12/02 01:21:32;;;;;;;3.20;1.80;;;8.50;93.40;;;;;;20911996;28;20257;-70
2021/12/02 01:31:35;;;;;;;3.80;1.80;;;8.50;93.00;;;;;;20845352;28;20238;-71
2021/12/02 01:41:50;;;;;;;3.63;2.00;;;8.50;93.10;;;;;;20845676;28;20607;-71
2021/12/02 01:51:56;;;;;;;3.80;1.83;;;8.50;93.00;;;;;;20844561;28;20230;-71
2021/12/02 02:01:58;;;;;;;4.93;1.80;;;8.40;93.30;;;;;;20843780;28;20250;-72
2021/12/02 02:12:11;;;;;;;3.60;1.63;;;8.30;93.90;;;;;;20843120;28;20244;-71
2021/12/02 02:22:19;;;;;;;4.80;2.07;;;8.20;93.90;;;;;;20842288;28;20210;-71
2021/12/02 02:32:26;;;;;;;3.60;2.07;;;8.10;94.50;;;;;;20841319;28;20242;-71
2021/12/02 02:42:28;;;;;;;4.40;2.17;;;8.10;94.90;;;;;;20840537;28;20672;-71
2021/12/02 02:52:32;;;;;;;4.83;2.10;;;8.10;95.20;;;;;;20839776;28;20244;-70
2021/12/02 03:02:49;;;;;;;5.30;2.10;;;7.90;95.40;;;;;;20839056;28;20208;-70
2021/12/02 03:13:13;;;;;;;5.50;2.30;;;8.00;95.90;;;;;;20838351;28;20370;-71
2021/12/02 03:23:15;;;;;;;4.07;1.70;;;7.90;95.90;;;;;;20837614;28;20601;-71
2021/12/02 03:33:17;;;;;;;2.67;1.53;;;7.80;96.10;;;;;;20834201;28;20241;-71
2021/12/02 03:43:21;;;;;;;3.30;1.53;;;7.80;95.90;;;;;;20836331;28;20218;-71
2021/12/02 03:53:23;;;;;;;1.87;1.47;;;7.70;96.00;;;;;;20834473;28;20231;-70
2021/12/02 04:03:25;;;;;;;2.80;1.70;;;7.70;96.40;;;;;;20834356;28;20240;-70
2021/12/02 04:13:32;;;;;;;2.10;1.50;;;7.60;96.60;;;;;;20833559;28;20333;-70
2021/12/02 04:23:34;;;;;;;1.90;1.47;;;7.50;96.40;;;;;;20832769;28;20203;-72
2021/12/02 04:33:36;;;;;;;3.03;1.40;;;7.50;96.60;;;;;;20832319;28;20244;-70
2021/12/02 04:43:37;;;;;;;1.30;1.20;;;7.40;96.20;;;;;;20831477;28;20211;-70
2021/12/02 04:53:39;;;;;;;2.83;1.50;;;7.40;96.50;;;;;;20831623;28;20231;-70
2021/12/02 05:03:41;;;;;;;1.70;1.20;;;7.40;96.30;;;;;;20830122;28;20204;-71
2021/12/02 05:13:47;;;;;;;2.83;1.60;;;7.40;96.60;;;;;;20829739;28;20289;-70
2021/12/02 05:23:53;;;;;;;3.57;2.00;;;7.30;96.80;;;;;;20829955;28;20211;-70
2021/12/02 05:33:55;;;;;;;3.13;1.47;;;7.40;97.10;;;;;;20825448;28;20242;-70
2021/12/02 05:43:56;;;;;;;2.23;1.50;;;7.30;96.50;;;;;;20828625;28;20214;-69
2021/12/02 05:53:58;;;;;;;6.43;3.10;;;7.30;96.80;;;;;;20828509;28;20291;-70
2021/12/02 06:04:01;;;;;;;2.47;1.80;;;7.10;96.40;;;;;;20827761;28;20259;-70
2021/12/02 06:14:04;;;;;;;1.60;1.00;;;6.60;96.20;;;;;;20826725;28;20306;-70
2021/12/02 06:24:07;;;;;;;1.93;1.57;;;6.60;96.50;;;;;;20838188;28;20209;-70
2021/12/02 06:34:09;;;;;;;3.53;1.37;;;6.20;96.40;;;;;;20840040;28;20628;-70
2021/12/02 06:44:10;;;;;;;7.10;0.97;;;6.10;96.30;;;;;;20840164;28;20240;-71
2021/12/02 06:54:12;;;;;;;1.13;1.00;;;6.20;96.60;;;;;;20838883;28;20233;-71
2021/12/02 07:04:25;;;;;;;2.27;1.40;;;6.20;96.50;;;;;;20838237;28;20240;-71
2021/12/02 07:14:27;;;;;;;2.90;1.40;;;6.00;96.40;;;;;;20837091;28;20245;-70
2021/12/02 07:24:29;;;;;;;4.93;2.00;;;6.00;96.50;;;;;;20836837;28;20217;-70
2021/12/02 07:34:44;;;;;;;1.80;1.23;;;5.80;95.90;;;;;;20832927;28;20228;-73
2021/12/02 07:44:46;;;;;;;2.97;1.67;;;5.80;95.90;;;;;;20835028;28;20205;-70
2021/12/02 07:54:51;;;;;;;3.37;1.80;;;5.80;95.90;;;;;;20871090;28;20232;-70
2021/12/02 08:11:34;;;;;;;2.77;1.63;;;6.00;96.00;;;;;;21066606;28;20556;-70
2021/12/02 08:21:36;;;;;;;2.53;1.90;;;6.10;96.20;;;;;;21065673;28;20211;-71
2021/12/02 08:31:37;;;;;;;1.57;1.20;;;6.30;96.20;;;;;;21065093;28;20639;-68
2021/12/02 08:41:44;;;;;;;2.07;1.30;;;6.20;95.60;;;;;;21065689;28;20199;-81
2021/12/02 08:51:46;;;;;;;2.10;1.20;;;6.10;95.30;;;;;;20989088;28;20253;-70
2021/12/02 09:01:48;;;;;;;2.70;1.57;;;6.20;95.30;;;;;;20978477;28;20667;-61
2021/12/02 09:19:34;;;;;;;4.37;1.57;;;6.20;95.40;;;;;;20981920;28;20916;-67
2021/12/02 09:29:36;;;;;;;2.70;1.53;;;6.10;95.20;;;;;;20981566;28;20722;-71
2021/12/02 09:39:38;;;;;;;1.93;1.33;;;6.00;95.30;;;;;;20981061;28;20617;-64
2021/12/02 09:49:40;;;;;;;2.53;1.80;;;6.10;95.70;;;;;;20980375;28;20200;-67
2021/12/02 10:10:05;;;;;;;1.57;1.30;;;6.30;95.60;;;;;;20978721;28;20209;-69
2021/12/02 10:20:22;;;;;;;2.77;1.63;;;6.40;95.40;;;;;;20977476;28;20258;-65
2021/12/02 10:30:25;;;;;;;3.23;1.97;;;6.30;95.40;;;;;;20925855;28;20236;-68
2021/12/02 10:40:27;;;;;;;2.47;1.50;;;6.30;95.80;;;;;;20922025;28;20205;-73
2021/12/02 10:50:37;;;;;;;2.00;1.20;;;6.30;95.70;;;;;;20918823;28;20231;-72
2021/12/02 11:00:43;;;;;;;2.20;1.30;;;6.40;95.60;;;;;;20919301;28;20206;-66
2021/12/02 11:10:51;;;;;;;2.73;1.67;;;6.40;95.30;;;;;;20919063;28;20328;-64
2021/12/02 11:20:59;;;;;;;3.40;1.60;;;6.40;95.50;;;;;;20913277;28;20252;-65
2021/12/02 11:31:09;;;;;;;2.20;1.47;;;6.50;95.50;;;;;;20916415;28;20235;-63
2021/12/02 11:41:11;;;;;;;4.00;1.90;;;6.50;95.40;;;;;;20915172;28;20725;-71
2021/12/02 11:51:16;;;;;;;2.60;1.70;;;6.70;95.70;;;;;;20916136;28;20237;-73
2021/12/02 12:01:24;;;;;;;2.17;1.60;;;6.80;95.50;;;;;;20914932;28;20591;-65
2021/12/02 12:11:34;;;;;;;2.63;2.10;;;7.00;95.30;;;;;;20913877;28;20242;-74
2021/12/02 12:23:36;;;;;;;2.67;1.90;;;7.00;94.90;;;;;;21066441;27;20657;-75
2021/12/02 12:33:40;;;;;;;2.87;1.90;;;7.10;94.90;;;;;;21064913;28;20231;-76
2021/12/02 12:43:54;;;;;;;3.03;2.00;;;7.10;94.70;;;;;;21064755;28;20664;-72
2021/12/02 12:53:57;;;;;;;7.00;2.30;;;7.10;94.90;;;;;;21064512;28;20617;-75
2021/12/02 13:04:09;;;;;;;1.13;1.00;;;6.60;94.30;;;;;;21063025;28;20207;-74
2021/12/02 13:14:13;;;;;;;3.07;1.50;;;6.60;94.60;;;;;;21062361;28;20624;-63
2021/12/02 13:24:19;;;;;;;1.60;1.50;;;6.50;94.50;;;;;;20975952;28;20237;-65
2021/12/02 13:34:24;;;;;;;3.50;2.30;;;6.30;94.20;;;;;;20924186;28;20286;-69
2021/12/02 13:44:44;;;;;;;6.60;3.53;;;6.30;94.30;;;;;;20922570;28;20200;-68
2021/12/02 13:54:59;;;;;;;4.93;2.80;;;6.40;94.50;;;;;;20921325;28;20286;-72
2021/12/02 14:05:01;;;;;;;7.90;4.67;;;6.40;94.30;;;;;;20940283;28;20274;-67
2021/12/02 14:15:13;;;;;;;5.80;3.53;;;6.50;94.00;;;;;;21001718;28;20244;-69
2021/12/02 14:25:16;;;;;;;5.20;2.40;;;6.30;93.60;;;;;;21001537;28;20254;-71
2021/12/02 14:35:19;;;;;;;4.93;2.73;;;6.30;93.70;;;;;;20997443;28;20228;-75
2021/12/02 14:45:22;;;;;;;5.30;4.07;;;6.30;94.00;;;;;;20991900;28;20215;-70
2021/12/02 14:55:30;;;;;;;5.57;3.20;;;6.30;93.90;;;;;;20998423;28;20682;-75
2021/12/02 15:05:31;;;;;;;11.57;1.50;;;5.80;94.30;;;;;;20958979;28;20260;-71
2021/12/02 15:15:39;;;;;;;2.13;1.10;;;5.50;94.90;;;;;;20991145;28;20243;-73
2021/12/02 15:25:48;;;;;;;2.90;1.10;;;5.50;95.20;;;;;;20991999;28;20211;-74
2021/12/02 15:35:50;;;;;;;3.80;1.47;;;5.10;94.80;;;;;;20996008;28;20230;-74
2021/12/02 15:50:52;;;;;;;2.10;1.70;;;5.00;95.30;;;;;;21066736;27;20902;-69
2021/12/02 16:00:59;;;;;;;2.60;1.93;;;5.10;95.60;;;;;;21066175;28;20619;-73
2021/12/02 16:21:11;;;;;;;2.50;2.00;;;5.20;95.20;;;;;;21143606;28;20237;-63
2021/12/02 16:31:16;;;;;;;6.10;2.80;;;5.00;95.10;;;;;;21145679;28;20202;-69
2021/12/02 16:41:17;;;;;;;10.27;2.87;;;5.10;95.50;;;;;;21146011;28;20236;-69
2021/12/02 16:51:19;;;;;;;3.73;2.67;;;5.20;95.20;;;;;;21145515;28;20206;-68
2021/12/02 17:10:25;;;;;;;5.23;3.20;;;5.20;95.10;;;;;;21322608;27;20531;-71
2021/12/02 17:20:28;;;;;;;5.17;3.23;;;5.10;95.00;;;;;;21209339;28;20212;-70
2021/12/02 17:30:31;;;;;;;5.27;3.13;;;5.00;95.10;;;;;;21234667;28;20209;-74
2021/12/02 17:40:37;;;;;;;7.73;3.80;;;5.10;95.20;;;;;;21189711;28;20267;-72
2021/12/02 17:50:42;;;;;;;6.67;3.73;;;4.90;94.70;;;;;;21148978;28;20622;-75
2021/12/02 18:00:44;;;;;;;7.67;5.30;;;4.90;94.70;;;;;;21147651;28;20271;-71
2021/12/02 18:10:45;;;;;;;7.60;4.27;;;4.80;94.90;;;;;;21147203;28;20206;-72
2021/12/02 18:20:47;;;;;;;12.97;7.30;;;4.80;94.70;;;;;;21093280;28;20230;-71
2021/12/02 18:30:49;;;;;;;7.83;4.37;;;4.50;94.60;;;;;;21089728;28;20207;-70
2021/12/02 18:40:51;;;;;;;7.87;4.57;;;4.50;94.90;;;;;;21089054;28;20226;-71
2021/12/02 18:50:55;;;;;;;8.83;4.60;;;4.60;94.80;;;;;;21086890;28;20211;-71
2021/12/02 19:00:57;;;;;;;14.40;5.73;;;4.60;94.40;;;;;;21086911;28;20643;-68
2021/12/02 19:31:42;;;;;;;8.70;6.00;;;4.40;94.30;;;;;;21108582;28;20267;-64
2021/12/02 19:41:44;;;;;;;11.57;7.33;;;4.40;94.40;;;;;;21127698;28;20453;-70
2021/12/02 19:51:46;;;;;;;24.90;7.80;;;4.50;94.80;;;;;;21108016;28;20255;-76
2021/12/02 20:01:50;;;;;;;17.97;8.53;;;4.60;94.70;;;;;;21166043;28;20242;-71
2021/12/02 20:11:52;;;;;;;14.30;9.57;;;4.60;94.60;;;;;;21114398;28;20217;-73
2021/12/02 20:21:54;;;;;;;12.43;8.30;;;4.60;94.80;;;;;;21080992;28;20230;-67
2021/12/02 20:31:56;;;;;;;13.30;8.73;;;4.80;94.60;;;;;;21107550;28;20649;-72
2021/12/02 20:41:58;;;;;;;14.40;8.73;;;4.90;94.60;;;;;;21098354;28;20847;-72
2021/12/02 20:54:53;;;;;;;11.63;7.60;;;4.90;94.60;;;;;;20984387;28;20557;-71
2021/12/02 21:04:55;;;;;;;13.40;8.20;;;5.00;94.50;;;;;;20983457;28;20659;-70
2021/12/02 21:14:58;;;;;;;13.33;8.13;;;5.10;94.40;;;;;;20918660;28;20729;-70
2021/12/02 21:25:00;;;;;;;13.93;9.00;;;5.10;94.60;;;;;;20898588;28;20274;-72
2021/12/02 21:35:03;;;;;;;14.20;9.47;;;5.10;94.30;;;;;;20898094;28;20207;-71
2021/12/02 21:45:06;;;;;;;18.30;9.50;;;5.10;94.70;;;;;;20982361;28;20214;-71
2021/12/02 21:55:11;;;;;;;13.63;8.97;;;5.00;94.90;;;;;;21063253;28;20213;-73
2021/12/02 22:05:14;;;;;;;16.00;9.83;;;5.00;95.10;;;;;;21012031;28;20207;-71
2021/12/02 22:15:17;;;;;;;10.23;7.03;;;4.80;94.90;;;;;;21005679;28;20674;-72
2021/12/02 22:25:18;;;;;;;10.27;6.80;;;4.90;95.20;;;;;;20968709;28;20602;-74
2021/12/02 22:35:21;;;;;;;12.27;8.00;;;4.90;95.30;;;;;;20921048;28;20690;-70
2021/12/02 22:45:24;;;;;;;11.20;7.37;;;4.70;95.30;;;;;;20965396;28;20710;-71
2021/12/02 22:55:26;;;;;;;11.83;8.67;;;4.70;95.70;;;;;;20965445;28;20632;-74
2021/12/02 23:05:28;;;;;;;15.37;9.23;;;4.60;95.40;;;;;;20915667;28;20208;-73
2021/12/02 23:15:31;;;;;;;11.73;7.97;;;4.60;95.40;;;;;;20904811;28;20275;-74
2021/12/02 23:25:34;;;;;;;14.40;9.03;;;4.60;95.60;;;;;;20908606;28;20242;-69
2021/12/02 23:35:36;;;;;;;12.73;8.67;;;4.60;95.40;;;;;;20916107;28;20266;-69
2021/12/02 23:45:38;;;;;;;13.00;9.13;;;4.50;95.60;;;;;;20962453;28;20335;-66
2021/12/02 23:55:40;;;;;;;11.23;8.33;;;4.50;95.60;;;;;;20997978;28;20318;-66
